This is the latest recevied weather packets stored in our database for station/object HA6IFZ-10. If no packets are shown the sender has not sent any weather packets the latest 10 day(s).
| Time | Temp. | Humidity | Pressure | Rain* | Wind** | Luminosity | Snow |
|---|---|---|---|---|---|---|---|
| 1777694562 | 8.89° C | 61% | 1031.9 hPa | - | - | - | - |
| 1777693662 | 8.89° C | 62% | 1032 hPa | - | - | - | - |
| 1777692762 | 8.89° C | 62% | 1032 hPa | - | - | - | - |
| 1777691862 | 9.44° C | 61% | 1031.8 hPa | - | - | - | - |
| 1777690962 | 9.44° C | 61% | 1031.9 hPa | - | - | - | - |
| 1777690065 | 10° C | 60% | 1031.9 hPa | - | - | - | - |
| 1777689162 | 9.44° C | 60% | 1031.9 hPa | - | - | - | - |
| 1777688262 | 9.44° C | 63% | 1032 hPa | - | - | - | - |
| 1777673873 | 8.89° C | 57% | 1033 hPa | - | - | - | - |
| 1777672973 | 8.33° C | 59% | 1033 hPa | - | - | - | - |
| 1777670272 | 8.89° C | 58% | 1033 hPa | - | - | - | - |
| 1777667572 | 9.44° C | 56% | 1032.9 hPa | - | - | - | - |
| 1777665771 | 10° C | 55% | 1032.7 hPa | - | - | - | - |
| 1777664871 | 10.56° C | 52% | 1032.7 hPa | - | - | - | - |
| 1777660384 | 12.22° C | 49% | 1032.4 hPa | - | - | - | - |
| 1777659483 | 13.33° C | 46% | 1032.3 hPa | - | - | - | - |
| 1777658583 | 14.44° C | 40% | 1032.1 hPa | - | - | - | - |
| 1777657683 | 15° C | 39% | 1032 hPa | - | - | - | - |
| 1777656783 | 15.56° C | 35% | 1031.9 hPa | - | - | - | - |
| 1777653182 | 17.22° C | 30% | 1031.8 hPa | - | - | - | - |
| 1777652282 | 17.22° C | 29% | 1031.8 hPa | - | - | - | - |
| 1777651382 | 17.22° C | 29% | 1032 hPa | - | - | - | - |
| 1777650482 | 17.22° C | 29% | 1032.1 hPa | - | - | - | - |
| 1777649582 | 17.22° C | 29% | 1032.2 hPa | - | - | - | - |
| 1777648681 | 17.22° C | 29% | 1032.2 hPa | - | - | - | - |
* Rain since midnight (hover to see other rain measurements)
** Current wind speed in m/s (hover to see current wind gust speed)